Time;durP1;ratioP1;P1;durP2;ratioP2;P2;SDS_P1;SDS_P2;PMS_P1;PMS_P2;Temp;Humidity;BMP_temperature;BMP_pressure;BME280_temperature;BME280_humidity;BME280_pressure;Samples;Min_cycle;Max_cycle;Signal;HPM_P1;HPM_P2
2021/05/13 00:00:57;;;;;;;46.13;29.20;;;;;;;8.65;77.88;99776.42;1708986;82;21138;-73
2021/05/13 00:03:23;;;;;;;47.23;30.37;;;;;;;8.67;77.86;99774.97;1703916;83;21014;-73
2021/05/13 00:05:49;;;;;;;40.05;26.80;;;;;;;8.68;77.90;99774.84;1710919;82;21740;-74
2021/05/13 00:08:16;;;;;;;36.33;24.87;;;;;;;8.71;77.90;99773.78;1721223;82;20995;-74
2021/05/13 00:10:42;;;;;;;33.90;23.45;;;;;;;8.70;77.91;99766.84;1710220;82;21098;-73
2021/05/13 00:13:09;;;;;;;35.83;23.57;;;;;;;8.72;77.87;99767.06;1708731;82;21102;-73
2021/05/13 00:15:41;;;;;;;33.18;24.27;;;;;;;8.73;77.84;99764.79;1709025;82;21605;-75
2021/05/13 00:18:09;;;;;;;34.13;24.20;;;;;;;8.74;77.80;99770.41;1711887;82;21764;-74
2021/05/13 00:20:39;;;;;;;31.02;23.20;;;;;;;8.76;77.80;99766.33;1710574;82;21134;-74
2021/05/13 00:23:06;;;;;;;31.65;23.73;;;;;;;8.73;77.83;99768.73;1709295;82;21003;-73
2021/05/13 00:25:32;;;;;;;32.15;23.80;;;;;;;8.74;77.84;99766.94;1712323;82;21645;-73
2021/05/13 00:27:58;;;;;;;30.30;23.52;;;;;;;8.72;77.78;99769.70;1708971;82;21062;-74
2021/05/13 00:30:25;;;;;;;32.23;23.60;;;;;;;8.72;77.70;99768.39;1689384;82;22203;-75
2021/05/13 00:32:52;;;;;;;31.73;24.30;;;;;;;8.73;77.68;99774.48;1709842;82;21408;-74
2021/05/13 00:35:19;;;;;;;32.95;24.67;;;;;;;8.68;77.66;99766.94;1710833;82;21073;-73
2021/05/13 00:37:46;;;;;;;33.67;25.15;;;;;;;8.65;77.72;99765.89;1712616;82;20974;-73
2021/05/13 00:40:17;;;;;;;34.23;24.43;;;;;;;8.64;77.81;99758.95;1708347;81;21102;-74
2021/05/13 00:42:44;;;;;;;33.88;25.70;;;;;;;8.66;77.82;99761.45;1712693;82;21713;-74
2021/05/13 00:45:13;;;;;;;30.52;23.70;;;;;;;8.65;77.82;99759.78;1709690;82;21051;-74
2021/05/13 00:48:01;;;;;;;29.02;22.58;;;;;;;8.63;77.80;99754.66;1713137;82;21652;-74
2021/05/13 00:50:15;;;;;;;29.80;22.25;;;;;;;8.60;77.82;99749.64;1713372;82;21093;-74
2021/05/13 00:52:42;;;;;;;31.35;22.02;;;;;;;8.56;77.84;99750.84;1724268;82;21480;-73
2021/05/13 00:55:11;;;;;;;30.60;22.00;;;;;;;8.52;77.86;99757.32;1720657;82;22203;-74
2021/05/13 00:57:40;;;;;;;26.30;19.85;;;;;;;8.49;77.87;99754.91;1727177;82;21050;-74
2021/05/13 01:00:29;;;;;;;27.30;20.17;;;;;;;8.47;77.83;99747.15;1728030;82;21062;-73
2021/05/13 01:02:36;;;;;;;25.77;20.12;;;;;;;8.44;77.78;99749.20;1721544;82;21085;-74
2021/05/13 01:05:02;;;;;;;26.25;20.32;;;;;;;8.39;77.78;99753.50;1726635;82;21014;-74
2021/05/13 01:07:28;;;;;;;24.18;18.73;;;;;;;8.36;77.75;99755.55;1727534;82;21751;-74
2021/05/13 01:09:56;;;;;;;25.45;18.32;;;;;;;8.33;77.76;99760.56;1734023;82;21504;-73
2021/05/13 01:12:22;;;;;;;23.70;18.55;;;;;;;8.31;77.74;99765.11;1720242;82;21034;-74
2021/05/13 01:14:50;;;;;;;24.27;18.98;;;;;;;8.27;77.74;99759.23;1723444;82;21085;-74
2021/05/13 01:19:50;;;;;;;22.07;18.00;;;;;;;8.24;77.78;99756.03;1676699;82;21894;-73
2021/05/13 01:22:18;;;;;;;24.25;18.00;;;;;;;8.22;77.80;99751.38;1727075;82;21974;-74
2021/05/13 01:24:44;;;;;;;23.40;17.40;;;;;;;8.22;77.82;99750.06;1720638;82;21062;-74
2021/05/13 01:27:11;;;;;;;21.95;18.48;;;;;;;8.19;77.82;99750.28;1722950;82;21058;-73
2021/05/13 01:29:44;;;;;;;20.90;17.27;;;;;;;8.19;77.81;99750.28;1723378;82;21092;-73
2021/05/13 01:32:07;;;;;;;22.60;17.32;;;;;;;8.18;77.79;99753.39;1721058;82;22370;-74
2021/05/13 01:34:33;;;;;;;21.87;18.35;;;;;;;8.16;77.76;99751.37;1721038;82;20974;-73
2021/05/13 01:37:01;;;;;;;22.55;17.05;;;;;;;8.13;77.75;99749.47;1719370;83;21026;-73
2021/05/13 01:39:27;;;;;;;21.55;17.00;;;;;;;8.10;77.74;99745.75;1723160;82;21085;-74
2021/05/13 01:41:54;;;;;;;22.25;17.95;;;;;;;8.08;77.76;99756.87;1733087;82;21572;-73
2021/05/13 01:44:20;;;;;;;23.02;17.77;;;;;;;8.03;77.78;99754.14;1733181;82;21802;-74
2021/05/13 01:46:48;;;;;;;23.65;17.87;;;;;;;8.03;77.76;99750.20;1722037;82;21093;-74
2021/05/13 01:49:21;;;;;;;23.15;17.73;;;;;;;8.02;77.76;99753.78;1723164;82;21053;-73
2021/05/13 01:51:47;;;;;;;21.62;16.85;;;;;;;8.02;77.73;99752.47;1725786;81;21011;-74
2021/05/13 01:54:15;;;;;;;23.98;17.67;;;;;;;8.01;77.70;99757.86;1731505;82;21659;-74
2021/05/13 01:56:41;;;;;;;23.12;17.57;;;;;;;7.99;77.67;99753.17;1723631;82;21746;-73
2021/05/13 01:59:08;;;;;;;22.40;17.02;;;;;;;7.98;77.62;99755.45;1722876;82;21094;-73
2021/05/13 02:01:35;;;;;;;23.32;16.87;;;;;;;7.97;77.59;99751.98;1723958;82;21109;-74
2021/05/13 02:04:02;;;;;;;19.27;15.63;;;;;;;7.97;77.54;99752.46;1726165;82;21086;-74
2021/05/13 02:06:29;;;;;;;20.37;15.88;;;;;;;7.95;77.47;99755.22;1723024;82;21535;-74
2021/05/13 02:08:56;;;;;;;22.52;16.87;;;;;;;7.93;77.40;99761.56;1731188;82;22114;-73
2021/05/13 02:11:22;;;;;;;21.52;16.45;;;;;;;7.91;77.40;99756.42;1721484;82;21026;-74
2021/05/13 02:13:48;;;;;;;21.62;16.30;;;;;;;7.89;77.33;99749.11;1719976;82;21065;-73
2021/05/13 02:16:16;;;;;;;20.48;16.50;;;;;;;7.88;77.28;99751.39;1728239;82;20984;-73
2021/05/13 02:18:43;;;;;;;23.87;16.87;;;;;;;7.87;77.24;99754.97;1742284;80;21038;-73
2021/05/13 02:21:10;;;;;;;24.05;16.73;;;;;;;7.87;77.14;99752.34;1727520;82;22568;-74
2021/05/13 02:23:36;;;;;;;20.43;16.65;;;;;;;7.87;77.07;99754.97;1733516;82;21553;-74
2021/05/13 02:26:03;;;;;;;20.05;15.98;;;;;;;7.84;77.08;99752.59;1721420;82;21034;-74
2021/05/13 02:28:30;;;;;;;19.07;15.78;;;;;;;7.83;77.13;99754.03;1724305;82;21058;-74
2021/05/13 02:30:56;;;;;;;21.37;15.83;;;;;;;7.81;77.15;99759.38;1725127;82;21105;-75
2021/05/13 02:33:23;;;;;;;21.15;15.80;;;;;;;7.80;77.17;99762.97;1720386;82;22302;-74
2021/05/13 02:35:50;;;;;;;22.25;17.25;;;;;;;7.79;77.18;99769.19;1720325;82;21101;-74
2021/05/13 02:38:16;;;;;;;20.08;14.78;;;;;;;7.76;77.11;99766.80;1719631;82;20999;-74
2021/05/13 02:40:42;;;;;;;21.87;17.17;;;;;;;7.70;77.16;99775.16;1719960;82;21033;-75
2021/05/13 02:43:09;;;;;;;24.80;17.95;;;;;;;7.63;77.21;99777.92;1720815;82;21501;-74
2021/05/13 02:45:35;;;;;;;24.75;18.27;;;;;;;7.58;77.30;99781.36;1720482;82;21784;-74
2021/05/13 02:48:01;;;;;;;23.15;17.27;;;;;;;7.52;77.34;99781.34;1736361;82;21098;-74
2021/05/13 02:50:28;;;;;;;19.45;16.37;;;;;;;7.50;77.43;99782.41;1721369;81;21121;-73
2021/05/13 02:52:55;;;;;;;22.90;16.82;;;;;;;7.50;77.45;99786.36;1713846;82;20995;-74
2021/05/13 02:55:23;;;;;;;21.23;15.55;;;;;;;7.49;77.51;99788.15;1712323;82;21066;-73
2021/05/13 02:57:50;;;;;;;18.23;14.43;;;;;;;7.50;77.57;99799.49;1706192;82;22404;-73
2021/05/13 03:02:45;;;;;;;16.02;12.55;;;;;;;7.46;77.60;99794.95;1728602;82;21489;-74
2021/05/13 03:05:12;;;;;;;16.57;13.32;;;;;;;7.43;77.68;99799.11;1712515;82;21042;-74
2021/05/13 03:08:00;;;;;;;15.78;12.28;;;;;;;7.41;77.77;99804.48;1718555;82;21099;-74
2021/05/13 03:12:56;;;;;;;14.05;11.78;;;;;;;7.41;77.88;99804.97;1716927;82;20963;-74
2021/05/13 03:15:22;;;;;;;15.75;11.35;;;;;;;7.41;77.98;99803.17;1712325;82;21580;-74
2021/05/13 03:17:50;;;;;;;15.30;12.55;;;;;;;7.43;78.05;99810.94;1717378;81;21129;-73
2021/05/13 03:20:20;;;;;;;17.07;12.73;;;;;;;7.42;78.14;99807.47;1706274;82;20966;-74
2021/05/13 03:22:50;;;;;;;13.80;10.55;;;;;;;7.41;78.20;99803.17;1709043;82;21732;-73
2021/05/13 03:25:16;;;;;;;15.72;12.25;;;;;;;7.43;78.29;99803.05;1707889;82;20974;-74
2021/05/13 03:27:54;;;;;;;16.73;12.20;;;;;;;7.42;78.35;99804.84;1727881;82;21461;-74
2021/05/13 03:30:24;;;;;;;14.83;12.63;;;;;;;7.41;78.40;99812.37;1709395;81;21094;-74
2021/05/13 03:32:48;;;;;;;14.07;11.53;;;;;;;7.42;78.42;99807.47;1732608;82;21042;-74
2021/05/13 03:35:14;;;;;;;13.32;11.93;;;;;;;7.42;78.47;99804.84;1728670;82;22326;-74
2021/05/13 03:37:41;;;;;;;13.65;11.60;;;;;;;7.46;78.56;99800.22;1705973;82;21019;-74
2021/05/13 03:40:09;;;;;;;12.80;9.98;;;;;;;7.49;78.61;99799.14;1711745;82;21059;-75
2021/05/13 03:42:36;;;;;;;11.10;9.93;;;;;;;7.55;78.62;99798.69;1718191;82;21066;-75
2021/05/13 03:45:05;;;;;;;13.35;10.35;;;;;;;7.58;78.63;99805.02;1719665;82;21121;-75
2021/05/13 03:47:31;;;;;;;15.25;11.53;;;;;;;7.61;78.66;99802.97;1711546;82;21789;-72
2021/05/13 03:49:58;;;;;;;12.60;10.58;;;;;;;7.67;78.68;99805.63;1732148;82;21059;-72
2021/05/13 03:52:25;;;;;;;14.00;11.53;;;;;;;7.69;78.60;99797.97;1711520;83;21473;-73
2021/05/13 03:54:51;;;;;;;13.13;10.85;;;;;;;7.73;78.62;99799.91;1714088;82;21057;-72
2021/05/13 03:57:18;;;;;;;11.73;10.48;;;;;;;7.79;78.67;99798.59;1713778;83;20986;-72
2021/05/13 03:59:45;;;;;;;13.15;11.38;;;;;;;7.83;78.65;99802.67;1715329;82;21761;-73
2021/05/13 04:04:50;;;;;;;13.72;11.05;;;;;;;7.90;78.64;99812.57;1741874;82;21055;-76
2021/05/13 04:07:16;;;;;;;12.40;10.58;;;;;;;7.96;78.73;99800.75;1734797;81;20979;-75
2021/05/13 04:09:43;;;;;;;12.50;10.38;;;;;;;8.03;78.79;99805.42;1738776;80;21050;-72
2021/05/13 04:12:10;;;;;;;12.58;10.50;;;;;;;8.12;78.68;99806.50;1713965;82;22220;-73
2021/05/13 04:14:36;;;;;;;11.80;10.30;;;;;;;8.18;78.66;99806.48;1714523;82;20991;-75
2021/05/13 04:17:07;;;;;;;10.63;9.53;;;;;;;8.23;78.44;99810.44;1724932;82;20959;-74
2021/05/13 04:19:33;;;;;;;10.65;9.45;;;;;;;8.27;78.33;99809.23;1716826;81;21062;-73
2021/05/13 04:22:01;;;;;;;10.18;8.53;;;;;;;8.32;78.27;99813.66;1730100;82;21568;-75
2021/05/13 04:24:27;;;;;;;11.65;8.53;;;;;;;8.37;78.18;99813.31;1722183;82;21778;-73
2021/05/13 04:26:54;;;;;;;9.75;8.75;;;;;;;8.41;77.98;99816.08;1730197;82;21011;-73
2021/05/13 04:29:20;;;;;;;9.45;8.33;;;;;;;8.46;77.95;99818.33;1680419;82;21791;-73
2021/05/13 04:31:47;;;;;;;9.50;8.35;;;;;;;8.52;77.90;99826.59;1717812;82;20970;-73
2021/05/13 04:34:13;;;;;;;10.65;9.33;;;;;;;8.56;77.70;99822.73;1742466;82;21019;-73
2021/05/13 04:36:40;;;;;;;69.55;55.28;;;;;;;8.62;77.54;99821.91;1743341;82;22128;-73
2021/05/13 04:39:06;;;;;;;38.48;29.72;;;;;;;8.69;77.35;99822.62;1743471;82;20971;-73
2021/05/13 04:41:33;;;;;;;27.07;23.07;;;;;;;8.76;77.16;99821.62;1741410;82;21015;-74
2021/05/13 04:44:01;;;;;;;13.13;9.73;;;;;;;8.82;77.08;99818.51;1723643;82;21079;-73
2021/05/13 04:46:34;;;;;;;10.38;8.25;;;;;;;8.92;76.91;99822.55;1723462;82;20991;-73
2021/05/13 04:51:33;;;;;;;16.37;12.15;;;;;;;9.10;76.62;99826.31;1715018;82;21117;-73
2021/05/13 04:54:00;;;;;;;14.68;11.55;;;;;;;9.20;76.45;99826.39;1724413;82;21054;-73
2021/05/13 04:56:27;;;;;;;15.75;12.07;;;;;;;9.29;76.23;99830.91;1719489;83;21017;-73
2021/05/13 04:58:54;;;;;;;9.13;7.92;;;;;;;9.34;75.88;99832.19;1719452;83;21014;-73
2021/05/13 05:01:20;;;;;;;13.18;10.08;;;;;;;9.36;75.35;99827.64;1719983;82;21752;-74
2021/05/13 05:03:47;;;;;;;8.78;7.87;;;;;;;9.36;75.14;99826.33;1719497;83;21054;-74
2021/05/13 05:06:13;;;;;;;10.63;8.78;;;;;;;9.40;75.02;99826.90;1727430;82;21548;-73
2021/05/13 05:08:40;;;;;;;10.80;8.33;;;;;;;9.47;74.91;99822.80;1749225;82;21058;-73
2021/05/13 05:11:07;;;;;;;10.75;7.97;;;;;;;9.53;74.83;99822.27;1749253;82;21006;-73
2021/05/13 05:13:34;;;;;;;14.75;10.50;;;;;;;9.58;74.51;99828.00;1749173;82;21528;-73
2021/05/13 05:16:02;;;;;;;11.35;9.78;;;;;;;9.62;74.21;99822.81;1742957;82;21053;-74
2021/05/13 05:18:29;;;;;;;13.18;9.93;;;;;;;9.65;73.93;99818.63;1719734;82;21082;-74
2021/05/13 05:20:56;;;;;;;17.40;10.20;;;;;;;9.69;73.87;99821.34;1719455;83;20982;-73
2021/05/13 05:23:23;;;;;;;14.65;9.18;;;;;;;9.75;73.63;99816.88;1727421;82;21069;-73
2021/05/13 05:25:50;;;;;;;16.10;9.75;;;;;;;9.80;73.36;99805.09;1719756;82;21771;-73
2021/05/13 05:28:16;;;;;;;10.20;7.75;;;;;;;9.89;73.23;99807.77;1719632;82;21453;-74
2021/05/13 05:30:42;;;;;;;9.93;8.68;;;;;;;9.99;72.95;99813.09;1719413;83;21026;-74
2021/05/13 05:33:10;;;;;;;11.90;7.92;;;;;;;10.10;72.48;99813.00;1719452;83;20986;-73
2021/05/13 05:35:37;;;;;;;6.62;5.87;;;;;;;10.21;72.51;99810.27;1719389;82;21015;-74
2021/05/13 05:38:05;;;;;;;6.37;5.70;;;;;;;10.34;71.80;99807.94;1728890;82;21742;-73
2021/05/13 05:40:31;;;;;;;8.90;6.30;;;;;;;10.43;71.27;99811.09;1737409;82;21032;-74
2021/05/13 05:42:58;;;;;;;13.25;6.17;;;;;;;10.52;70.87;99811.61;1719475;83;21009;-74
2021/05/13 05:45:26;;;;;;;7.28;5.22;;;;;;;10.63;70.77;99811.97;1723922;82;21070;-74
2021/05/13 05:47:59;;;;;;;11.45;7.42;;;;;;;10.74;70.52;99806.56;1732078;82;21567;-73
2021/05/13 05:50:24;;;;;;;19.62;13.78;;;;;;;10.81;70.10;99817.78;1721974;82;22455;-73
2021/05/13 05:52:50;;;;;;;13.90;10.53;;;;;;;10.88;70.09;99812.76;1729437;81;21106;-73
2021/05/13 05:55:16;;;;;;;15.70;10.78;;;;;;;10.97;69.75;99821.19;1708478;82;21015;-73
2021/05/13 05:57:43;;;;;;;14.87;11.45;;;;;;;11.07;69.46;99822.52;1720612;82;22218;-74
2021/05/13 06:00:11;;;;;;;6.42;5.37;;;;;;;11.12;69.30;99824.27;1711303;82;21548;-73
2021/05/13 06:02:37;;;;;;;7.20;5.25;;;;;;;11.20;69.18;99827.06;1705924;84;21751;-73
2021/05/13 06:05:04;;;;;;;7.85;5.42;;;;;;;11.28;68.49;99828.98;1709211;82;21055;-74
2021/05/13 06:07:32;;;;;;;8.20;5.28;;;;;;;11.29;67.30;99830.19;1703155;82;21066;-73
2021/05/13 06:09:59;;;;;;;5.17;4.67;;;;;;;11.33;67.44;99820.16;1709392;83;21028;-74
2021/05/13 06:12:26;;;;;;;5.33;4.78;;;;;;;11.36;67.06;99820.70;1706372;82;20974;-74
2021/05/13 06:14:52;;;;;;;9.85;5.08;;;;;;;11.43;67.03;99815.70;1707038;82;21661;-74
2021/05/13 06:17:19;;;;;;;7.87;5.03;;;;;;;11.55;66.92;99819.02;1711317;82;21071;-74
2021/05/13 06:19:46;;;;;;;5.53;4.67;;;;;;;11.68;66.83;99818.25;1711050;82;21007;-74
2021/05/13 06:22:12;;;;;;;6.58;4.50;;;;;;;11.81;66.18;99820.11;1705929;84;21589;-73
2021/05/13 06:24:39;;;;;;;6.83;5.40;;;;;;;11.92;65.27;99810.67;1685737;84;21069;-74
2021/05/13 06:27:06;;;;;;;9.98;6.85;;;;;;;12.01;63.73;99812.46;1705743;83;22199;-74
2021/05/13 06:29:32;;;;;;;9.13;6.78;;;;;;;12.12;63.52;99813.26;1706845;82;21066;-74
2021/05/13 06:31:59;;;;;;;6.92;6.22;;;;;;;12.22;63.64;99808.76;1702585;82;21051;-74
2021/05/13 06:34:28;;;;;;;11.50;6.42;;;;;;;12.32;62.77;99803.75;1712277;82;21027;-74
2021/05/13 06:36:54;;;;;;;5.87;4.75;;;;;;;12.45;62.44;99805.22;1734785;82;21015;-73
2021/05/13 06:39:21;;;;;;;7.30;5.25;;;;;;;12.57;62.46;99807.54;1735168;82;21679;-73
2021/05/13 06:41:47;;;;;;;5.58;4.55;;;;;;;12.70;61.68;99803.70;1701027;82;21475;-72
2021/05/13 06:44:14;;;;;;;4.40;3.77;;;;;;;12.78;61.01;99807.76;1690879;84;20985;-72
2021/05/13 06:46:40;;;;;;;4.85;3.15;;;;;;;12.83;58.99;99809.45;1721734;81;21054;-73
2021/05/13 06:49:07;;;;;;;2.35;2.15;;;;;;;12.87;58.67;99813.00;1724473;82;20992;-74
2021/05/13 06:51:33;;;;;;;2.42;1.92;;;;;;;12.98;57.06;99803.16;1735243;82;21792;-70
2021/05/13 06:53:59;;;;;;;5.03;3.37;;;;;;;13.09;55.56;99808.23;1740810;82;21094;-73
2021/05/13 06:56:26;;;;;;;6.42;4.08;;;;;;;13.20;56.44;99809.84;1692954;83;21007;-73
2021/05/13 06:58:52;;;;;;;10.03;4.97;;;;;;;13.30;56.19;99805.28;1719435;82;21607;-73
2021/05/13 07:01:19;;;;;;;9.53;6.25;;;;;;;13.38;56.41;99809.34;1719486;83;21026;-73
2021/05/13 07:03:45;;;;;;;13.03;6.35;;;;;;;13.43;56.02;99807.91;1719443;82;21749;-71
2021/05/13 07:06:11;;;;;;;7.47;5.03;;;;;;;13.48;56.58;99803.45;1723583;82;21033;-71
2021/05/13 07:08:38;;;;;;;6.85;4.95;;;;;;;13.52;56.20;99807.48;1719220;83;20986;-70
2021/05/13 07:11:04;;;;;;;10.38;4.47;;;;;;;13.56;56.28;99800.03;1719430;82;21078;-71
2021/05/13 07:13:31;;;;;;;5.75;4.53;;;;;;;13.64;56.07;99807.56;1743403;82;21601;-72
2021/05/13 07:15:59;;;;;;;3.60;3.02;;;;;;;13.72;55.04;99808.95;1748257;82;21030;-70
2021/05/13 07:18:25;;;;;;;11.73;5.85;;;;;;;13.79;54.33;99807.81;1741769;82;20986;-70
2021/05/13 07:20:52;;;;;;;8.88;5.00;;;;;;;13.83;54.23;99799.05;1719345;83;21029;-71
2021/05/13 07:23:18;;;;;;;3.95;3.12;;;;;;;13.90;54.11;99799.61;1739776;82;21003;-71
2021/05/13 07:25:46;;;;;;;4.90;2.98;;;;;;;13.98;53.27;99794.81;1742113;82;21488;-70
2021/05/13 07:28:13;;;;;;;4.22;3.20;;;;;;;14.00;52.75;99795.52;1733404;82;21794;-71
2021/05/13 07:30:42;;;;;;;5.40;2.85;;;;;;;14.08;52.99;99801.34;1745996;82;21066;-70
2021/05/13 07:33:08;;;;;;;13.50;4.28;;;;;;;14.19;53.28;99803.74;1747823;82;20983;-71
2021/05/13 07:35:35;;;;;;;9.80;4.83;;;;;;;14.28;52.82;99807.61;1748182;82;21516;-73
2021/05/13 07:38:01;;;;;;;7.40;3.70;;;;;;;14.33;52.21;99810.60;1741449;82;21061;-72
2021/05/13 07:40:28;;;;;;;6.50;3.62;;;;;;;14.33;51.63;99811.92;1724691;82;21699;-72
2021/05/13 07:42:55;;;;;;;10.72;3.55;;;;;;;14.40;52.39;99812.13;1721838;82;21050;-72
2021/05/13 07:45:23;;;;;;;5.72;3.15;;;;;;;14.47;51.80;99810.51;1749361;82;21031;-73
2021/05/13 07:47:49;;;;;;;9.00;2.77;;;;;;;14.52;51.96;99813.53;1748439;82;21070;-74
2021/05/13 07:50:19;;;;;;;7.22;2.90;;;;;;;14.54;53.41;99816.85;1740078;82;20990;-73
2021/05/13 07:52:45;;;;;;;5.30;2.30;;;;;;;14.49;54.37;99816.52;1738655;81;22336;-74
2021/05/13 07:55:12;;;;;;;13.20;3.37;;;;;;;14.52;55.57;99819.34;1736313;82;21038;-73
2021/05/13 07:57:39;;;;;;;11.93;2.47;;;;;;;14.49;55.92;99816.52;1723842;82;21473;-74
2021/05/13 08:00:07;;;;;;;7.28;3.20;;;;;;;14.46;55.90;99819.47;1719739;82;21014;-76
2021/05/13 08:02:37;;;;;;;8.55;2.72;;;;;;;14.42;56.21;99819.94;1719712;82;21489;-76
2021/05/13 08:05:05;;;;;;;7.80;2.90;;;;;;;14.38;56.56;99811.47;1682427;83;21789;-75
2021/05/13 08:07:31;;;;;;;4.25;2.67;;;;;;;14.36;56.89;99818.73;1721475;82;21051;-74
2021/05/13 08:09:58;;;;;;;3.42;2.67;;;;;;;14.41;55.97;99813.80;1719595;83;20998;-75
2021/05/13 08:12:26;;;;;;;5.08;3.00;;;;;;;14.41;56.30;99820.44;1719472;83;20982;-75
2021/05/13 08:14:53;;;;;;;3.65;3.30;;;;;;;14.32;56.77;99810.27;1722374;82;21022;-75
2021/05/13 08:17:19;;;;;;;5.75;3.42;;;;;;;14.31;58.09;99809.93;1729270;82;21774;-76
2021/05/13 08:19:46;;;;;;;3.35;3.05;;;;;;;14.40;58.84;99809.97;1731798;82;20971;-76
2021/05/13 08:22:13;;;;;;;2.70;2.50;;;;;;;14.53;59.06;99813.03;1724979;82;21082;-76
2021/05/13 08:24:39;;;;;;;4.90;2.83;;;;;;;14.65;59.09;99818.87;1719651;83;21070;-76
2021/05/13 08:27:06;;;;;;;3.90;2.77;;;;;;;14.71;58.77;99818.24;1725210;82;21461;-76
2021/05/13 08:29:32;;;;;;;5.62;3.00;;;;;;;14.77;58.74;99814.95;1720212;82;22420;-74
2021/05/13 08:31:59;;;;;;;5.60;2.70;;;;;;;14.76;58.19;99826.05;1746101;82;20990;-75
2021/05/13 08:34:25;;;;;;;3.52;2.92;;;;;;;14.76;57.94;99824.72;1724834;82;20995;-75
2021/05/13 08:36:52;;;;;;;4.28;2.83;;;;;;;14.83;58.45;99819.09;1719812;82;21081;-74
2021/05/13 08:39:19;;;;;;;3.02;2.52;;;;;;;15.01;58.57;99826.13;1731473;82;21038;-73
2021/05/13 08:41:45;;;;;;;5.90;2.72;;;;;;;15.18;57.35;99827.81;1725919;82;22530;-76
2021/05/13 08:44:12;;;;;;;4.85;2.55;;;;;;;15.33;57.81;99823.98;1727282;82;21062;-78
2021/05/13 08:46:40;;;;;;;5.05;3.20;;;;;;;15.50;57.02;99820.33;1724353;82;21066;-76
2021/05/13 08:49:06;;;;;;;7.60;2.37;;;;;;;15.59;55.92;99822.49;1735084;82;21021;-76
2021/05/13 08:51:33;;;;;;;3.30;2.30;;;;;;;15.54;56.42;99819.02;1749326;82;21026;-77
2021/05/13 08:54:00;;;;;;;2.58;1.82;;;;;;;15.58;56.16;99812.85;1723338;82;21750;-76
2021/05/13 08:56:28;;;;;;;4.67;3.37;;;;;;;15.68;56.69;99811.70;1738996;82;21473;-75
2021/05/13 08:58:58;;;;;;;2.80;2.20;;;;;;;15.79;56.32;99805.70;1743015;82;21090;-75
2021/05/13 09:01:24;;;;;;;2.83;2.10;;;;;;;15.89;56.45;99811.67;1719522;83;21581;-73
2021/05/13 09:03:55;;;;;;;3.77;2.33;;;;;;;16.03;56.37;99814.48;1723143;82;21089;-73
2021/05/13 09:07:03;;;;;;;5.62;2.33;;;;;;;16.19;55.06;99798.92;1746906;82;22562;-74
2021/05/13 09:09:18;;;;;;;2.02;1.82;;;;;;;16.26;54.38;99802.57;1710642;83;20998;-72
2021/05/13 09:11:57;;;;;;;3.67;2.25;;;;;;;16.15;54.36;99794.95;1745513;82;20998;-72
2021/05/13 09:14:27;;;;;;;2.22;1.85;;;;;;;16.01;54.59;99801.80;1734104;82;21103;-71
2021/05/13 09:16:55;;;;;;;3.12;1.70;;;;;;;15.98;55.42;99798.16;1732624;82;21113;-74
2021/05/13 09:19:34;;;;;;;3.27;1.72;;;;;;;16.11;55.57;99788.80;1721610;82;22252;-74
2021/05/13 09:22:08;;;;;;;2.65;1.62;;;;;;;16.07;54.34;99790.16;1742913;82;21034;-75
2021/05/13 09:25:04;;;;;;;2.45;1.98;;;;;;;16.12;55.74;99781.16;1728608;82;20971;-73
2021/05/13 09:27:49;;;;;;;2.40;1.62;;;;;;;16.31;54.66;99788.75;1715956;82;21081;-78
2021/05/13 09:30:24;;;;;;;6.60;3.37;;;;;;;16.47;54.65;99785.98;1729521;82;21018;-77
2021/05/13 09:32:58;;;;;;;2.95;2.20;;;;;;;16.64;52.79;99775.25;1721734;82;21804;-77
2021/05/13 09:35:34;;;;;;;1.80;1.70;;;;;;;16.52;52.68;99774.81;1714094;82;20998;-74
2021/05/13 09:38:07;;;;;;;3.70;1.90;;;;;;;16.46;54.16;99788.33;1738563;82;21054;-76
2021/05/13 09:40:52;;;;;;;1.72;1.50;;;;;;;16.57;53.04;99779.11;1737552;82;21468;-77
2021/05/13 09:43:21;;;;;;;2.50;1.85;;;;;;;16.51;53.20;99777.98;1734391;82;21070;-75
2021/05/13 09:45:56;;;;;;;2.30;1.72;;;;;;;16.46;53.59;99783.50;1733678;82;21795;-75
2021/05/13 09:48:44;;;;;;;2.40;1.60;;;;;;;16.47;53.80;99777.98;1733890;82;21038;-75
2021/05/13 09:51:36;;;;;;;2.37;1.52;;;;;;;16.50;53.53;99776.33;1655170;85;21029;-75
2021/05/13 09:54:14;;;;;;;1.72;1.52;;;;;;;16.42;53.88;99775.53;1724441;82;21064;-74
2021/05/13 09:56:50;;;;;;;6.47;1.40;;;;;;;16.41;53.49;99776.04;1688724;83;21078;-75
2021/05/13 09:59:28;;;;;;;1.52;1.40;;;;;;;16.35;53.87;99771.39;1710325;82;22387;-75
2021/05/13 10:02:00;;;;;;;3.05;1.50;;;;;;;16.39;54.09;99769.20;1721121;81;21015;-74
2021/05/13 10:04:26;;;;;;;3.65;1.45;;;;;;;16.55;53.62;99767.29;1735203;82;20951;-75
2021/05/13 10:06:54;;;;;;;4.53;1.72;;;;;;;16.81;53.28;99756.84;1708263;82;21544;-75
2021/05/13 10:09:21;;;;;;;2.20;1.20;;;;;;;17.06;52.24;99756.98;1705835;84;21042;-75
2021/05/13 10:11:55;;;;;;;4.67;1.77;;;;;;;17.29;52.38;99756.14;1708763;82;21723;-73
2021/05/13 10:14:23;;;;;;;3.72;1.50;;;;;;;17.57;52.22;99763.07;1735115;82;20975;-74
2021/05/13 10:16:53;;;;;;;4.70;3.75;;;;;;;17.79;51.39;99754.69;1734661;81;21039;-75
2021/05/13 10:19:28;;;;;;;8.68;1.50;;;;;;;17.95;51.42;99752.68;1711681;82;21094;-74
2021/05/13 10:21:55;;;;;;;3.10;1.20;;;;;;;18.19;51.30;99758.23;1705107;82;21067;-74
2021/05/13 10:24:22;;;;;;;3.17;1.67;;;;;;;18.37;50.52;99750.33;1685501;83;21743;-74
2021/05/13 10:26:50;;;;;;;8.55;1.32;;;;;;;18.38;48.69;99766.69;1706009;84;21019;-74
2021/05/13 10:29:26;;;;;;;5.78;1.60;;;;;;;18.21;49.32;99773.56;1706809;82;21018;-74
2021/05/13 10:32:18;;;;;;;7.40;1.60;;;;;;;18.19;48.71;99765.41;1718964;82;21611;-74
2021/05/13 10:34:53;;;;;;;3.25;1.50;;;;;;;18.35;50.25;99773.25;1708500;82;21082;-75
2021/05/13 10:37:37;;;;;;;4.20;1.27;;;;;;;18.61;47.33;99768.70;1706402;82;21755;-74
2021/05/13 10:40:15;;;;;;;1.95;1.22;;;;;;;18.58;47.40;99768.58;1710242;82;21599;-75
2021/05/13 10:42:45;;;;;;;6.17;1.55;;;;;;;18.55;46.18;99770.81;1715089;82;21090;-74
2021/05/13 10:45:30;;;;;;;4.97;1.27;;;;;;;18.47;47.86;99761.55;1731564;82;21123;-75
2021/05/13 10:48:27;;;;;;;1.85;1.22;;;;;;;18.59;47.38;99763.55;1730033;82;21071;-75
2021/05/13 10:51:04;;;;;;;2.77;1.32;;;;;;;18.67;46.69;99775.19;1735277;82;21771;-74
2021/05/13 10:53:44;;;;;;;5.10;1.22;;;;;;;18.60;46.32;99771.88;1713330;82;21072;-75
2021/05/13 10:56:29;;;;;;;4.20;1.50;;;;;;;18.47;46.09;99765.56;1730713;81;21037;-75
2021/05/13 10:59:10;;;;;;;2.08;1.30;;;;;;;18.21;46.11;99770.89;1736618;81;21460;-74
2021/05/13 11:01:48;;;;;;;1.52;1.30;;;;;;;18.09;46.66;99766.21;1729496;81;21033;-74
2021/05/13 11:04:29;;;;;;;1.72;0.98;;;;;;;18.06;46.58;99766.59;1746153;80;21782;-71
2021/05/13 11:07:06;;;;;;;2.45;1.17;;;;;;;17.94;45.96;99775.04;1728334;81;21006;-73
2021/05/13 11:09:46;;;;;;;2.62;1.05;;;;;;;17.70;47.43;99772.13;1737373;81;21065;-74
2021/05/13 11:12:16;;;;;;;1.50;1.20;;;;;;;17.60;47.11;99772.05;1736099;81;21116;-75
2021/05/13 11:20:31;;;;;;;1.52;1.10;;;;;;;17.13;47.72;99779.28;1728027;81;20989;-77
2021/05/13 11:23:11;;;;;;;1.40;1.13;;;;;;;17.04;47.57;99783.52;1731868;81;21089;-76
2021/05/13 11:25:46;;;;;;;1.57;1.20;;;;;;;16.93;48.00;99783.43;1748807;81;21511;-75
2021/05/13 11:28:40;;;;;;;1.40;1.30;;;;;;;16.90;48.28;99778.96;1731802;81;21089;-76
2021/05/13 11:31:09;;;;;;;;;;;;;;;17.02;48.80;99782.88;1734485;81;22430;-77
2021/05/13 11:33:51;;;;;;;2.17;1.17;;;;;;;17.30;48.43;99776.48;1729599;81;20633;-77
2021/05/13 11:36:26;;;;;;;3.98;1.10;;;;;;;17.48;48.15;99766.83;1731321;81;21412;-77
2021/05/13 11:38:58;;;;;;;2.17;1.20;;;;;;;17.71;47.73;99766.28;1727949;81;21104;-77
2021/05/13 11:41:26;;;;;;;2.67;1.25;;;;;;;17.67;46.91;99769.80;1726910;83;20969;-77
2021/05/13 11:43:53;;;;;;;22.70;4.22;;;;;;;17.49;47.70;99766.64;1727057;83;21730;-77
2021/05/13 11:46:23;;;;;;;12.85;3.90;;;;;;;17.44;48.30;99765.83;1726956;83;21033;-77
2021/05/13 11:48:51;;;;;;;3.25;1.37;;;;;;;17.46;48.24;99760.31;1727013;83;21063;-77
2021/05/13 11:51:23;;;;;;;17.10;2.83;;;;;;;17.42;48.05;99757.18;1726960;83;20974;-77
2021/05/13 11:53:52;;;;;;;3.35;1.45;;;;;;;17.17;48.74;99760.55;1726137;81;21081;-77
2021/05/13 11:56:19;;;;;;;3.08;1.20;;;;;;;17.05;49.13;99764.66;1719502;83;22419;-77